KHLR/HLR METAR and TAF weather

Enter ICAO airport designator
Station Type Date Time Source
KHLR METAR 2020/01/22 18:11 UTC NOAA

KHLR 221811Z AUTO 15009KT 6SM -RA BR OVC002 08/07 A3001 RMK AO2 RAB11 SLP163


Station Type Date Time Source
KHLR Decoded METAR 2020/01/22 18:11 UTC NOAA

Fort Hood, Hood AAF Ft Hood, TX, United States (KHLR) 31-08N 097-42W
Jan 22, 2020 - 01:11 PM EST / 2020.01.22 1811 UTC
Wind: from the SSE (150 degrees) at 10 MPH (9 KT):0
Visibility: 6 mile(s):0
Sky conditions: overcast
Weather: light rain; mist
Temperature: 46 F (8 C)
Dew Point: 44 F (7 C)
Relative Humidity: 93%
Pressure (altimeter): 30.01 in. Hg (1016 hPa)
ob: KHLR 221811Z AUTO 15009KT 6SM -RA BR OVC002 08/07 A3001 RMK AO2 RAB11 SLP163
cycle: 18

Station Type Date Time Source
KHLR TAF UTC NOAA

Error!

Example: see airport list